sensor_id;sensor_type;location;lat;lon;timestamp;pressure;altitude;pressure_sealevel;temperature
67966;BMP280;54749;47.850;9.002;2022-11-27T00:01:24;97187.69;;;0.49
67966;BMP280;54749;47.850;9.002;2022-11-27T00:03:52;97187.81;;;0.43
67966;BMP280;54749;47.850;9.002;2022-11-27T00:06:22;97194.47;;;0.41
67966;BMP280;54749;47.850;9.002;2022-11-27T00:08:50;97191.00;;;0.48
67966;BMP280;54749;47.850;9.002;2022-11-27T00:11:19;97176.94;;;0.47
67966;BMP280;54749;47.850;9.002;2022-11-27T00:13:47;97169.50;;;0.47
67966;BMP280;54749;47.850;9.002;2022-11-27T00:16:15;97169.50;;;0.47
67966;BMP280;54749;47.850;9.002;2022-11-27T00:18:43;97180.06;;;0.56
67966;BMP280;54749;47.850;9.002;2022-11-27T00:21:16;97176.78;;;0.56
67966;BMP280;54749;47.850;9.002;2022-11-27T00:23:43;97164.44;;;0.52
67966;BMP280;54749;47.850;9.002;2022-11-27T00:26:10;97163.66;;;0.48
67966;BMP280;54749;47.850;9.002;2022-11-27T00:28:37;97166.44;;;0.34
67966;BMP280;54749;47.850;9.002;2022-11-27T00:31:07;97167.44;;;0.22
67966;BMP280;54749;47.850;9.002;2022-11-27T00:33:34;97169.25;;;0.15
67966;BMP280;54749;47.850;9.002;2022-11-27T00:36:05;97171.19;;;-0.00
67966;BMP280;54749;47.850;9.002;2022-11-27T00:38:33;97153.88;;;-0.06
67966;BMP280;54749;47.850;9.002;2022-11-27T00:41:09;97162.09;;;-0.01
67966;BMP280;54749;47.850;9.002;2022-11-27T00:43:37;97152.22;;;-0.04
67966;BMP280;54749;47.850;9.002;2022-11-27T00:46:15;97162.03;;;0.01
67966;BMP280;54749;47.850;9.002;2022-11-27T00:48:43;97144.69;;;0.00
67966;BMP280;54749;47.850;9.002;2022-11-27T00:51:13;97142.28;;;-0.04
67966;BMP280;54749;47.850;9.002;2022-11-27T00:53:40;97140.72;;;-0.11
67966;BMP280;54749;47.850;9.002;2022-11-27T00:56:08;97137.53;;;-0.19
67966;BMP280;54749;47.850;9.002;2022-11-27T00:58:35;97133.31;;;-0.14
67966;BMP280;54749;47.850;9.002;2022-11-27T01:01:05;97125.91;;;-0.17
67966;BMP280;54749;47.850;9.002;2022-11-27T01:03:32;97119.25;;;-0.15
67966;BMP280;54749;47.850;9.002;2022-11-27T01:06:04;97112.72;;;-0.19
67966;BMP280;54749;47.850;9.002;2022-11-27T01:08:32;97097.00;;;-0.21
67966;BMP280;54749;47.850;9.002;2022-11-27T01:10:59;97112.56;;;-0.12
67966;BMP280;54749;47.850;9.002;2022-11-27T01:13:29;97106.00;;;-0.14
67966;BMP280;54749;47.850;9.002;2022-11-27T01:16:18;97101.19;;;-0.23
67966;BMP280;54749;47.850;9.002;2022-11-27T01:18:47;97094.41;;;-0.15
67966;BMP280;54749;47.850;9.002;2022-11-27T01:21:17;97105.09;;;-0.10
67966;BMP280;54749;47.850;9.002;2022-11-27T01:23:44;97102.56;;;-0.07
67966;BMP280;54749;47.850;9.002;2022-11-27T01:26:12;97086.81;;;-0.08
67966;BMP280;54749;47.850;9.002;2022-11-27T01:28:39;97086.81;;;-0.06
67966;BMP280;54749;47.850;9.002;2022-11-27T01:31:10;97089.19;;;-0.00
67966;BMP280;54749;47.850;9.002;2022-11-27T01:33:38;97094.16;;;-0.00
67966;BMP280;54749;47.850;9.002;2022-11-27T01:36:06;97079.19;;;0.02
67966;BMP280;54749;47.850;9.002;2022-11-27T01:38:34;97080.88;;;0.00
67966;BMP280;54749;47.850;9.002;2022-11-27T01:41:07;97068.41;;;0.03
67966;BMP280;54749;47.850;9.002;2022-11-27T01:43:52;97064.28;;;0.04
67966;BMP280;54749;47.850;9.002;2022-11-27T01:51:41;97074.97;;;0.06
67966;BMP280;54749;47.850;9.002;2022-11-27T01:54:10;97088.31;;;0.02
67966;BMP280;54749;47.850;9.002;2022-11-27T01:56:39;97056.91;;;-0.00
67966;BMP280;54749;47.850;9.002;2022-11-27T01:59:06;97059.41;;;-0.03
67966;BMP280;54749;47.850;9.002;2022-11-27T02:01:34;97062.72;;;-0.01
67966;BMP280;54749;47.850;9.002;2022-11-27T02:04:01;97060.22;;;0.00
67966;BMP280;54749;47.850;9.002;2022-11-27T02:06:28;97056.16;;;-0.05
67966;BMP280;54749;47.850;9.002;2022-11-27T02:08:55;97045.41;;;-0.07
67966;BMP280;54749;47.850;9.002;2022-11-27T02:11:41;97048.72;;;-0.07
67966;BMP280;54749;47.850;9.002;2022-11-27T02:14:19;97035.56;;;-0.12
67966;BMP280;54749;47.850;9.002;2022-11-27T02:17:10;97039.78;;;-0.15
67966;BMP280;54749;47.850;9.002;2022-11-27T02:25:40;97014.28;;;-0.26
67966;BMP280;54749;47.850;9.002;2022-11-27T02:30:51;97026.78;;;-0.30
67966;BMP280;54749;47.850;9.002;2022-11-27T02:33:20;97011.94;;;-0.32
67966;BMP280;54749;47.850;9.002;2022-11-27T02:35:54;97007.06;;;-0.36
67966;BMP280;54749;47.850;9.002;2022-11-27T02:38:29;97016.16;;;-0.36
67966;BMP280;54749;47.850;9.002;2022-11-27T02:43:37;97012.03;;;-0.37
67966;BMP280;54749;47.850;9.002;2022-11-27T02:46:06;97007.00;;;-0.35
67966;BMP280;54749;47.850;9.002;2022-11-27T02:48:44;97011.13;;;-0.34
67966;BMP280;54749;47.850;9.002;2022-11-27T02:51:14;97011.97;;;-0.35
67966;BMP280;54749;47.850;9.002;2022-11-27T02:53:47;97015.34;;;-0.35
67966;BMP280;54749;47.850;9.002;2022-11-27T02:56:18;97007.06;;;-0.37
67966;BMP280;54749;47.850;9.002;2022-11-27T02:58:46;97007.06;;;-0.37
67966;BMP280;54749;47.850;9.002;2022-11-27T03:01:17;97009.56;;;-0.39
67966;BMP280;54749;47.850;9.002;2022-11-27T03:03:51;97007.97;;;-0.41
67966;BMP280;54749;47.850;9.002;2022-11-27T03:06:26;97001.34;;;-0.41
67966;BMP280;54749;47.850;9.002;2022-11-27T03:09:25;96996.38;;;-0.41
67966;BMP280;54749;47.850;9.002;2022-11-27T03:11:53;96977.38;;;-0.43
67966;BMP280;54749;47.850;9.002;2022-11-27T03:14:21;96995.66;;;-0.46
67966;BMP280;54749;47.850;9.002;2022-11-27T03:22:10;97002.41;;;-0.52
67966;BMP280;54749;47.850;9.002;2022-11-27T03:24:38;96999.16;;;-0.57
67966;BMP280;54749;47.850;9.002;2022-11-27T03:27:05;96990.97;;;-0.62
67966;BMP280;54749;47.850;9.002;2022-11-27T03:29:46;96991.91;;;-0.67
67966;BMP280;54749;47.850;9.002;2022-11-27T03:32:14;96990.97;;;-0.62
67966;BMP280;54749;47.850;9.002;2022-11-27T03:34:41;96976.09;;;-0.62
67966;BMP280;54749;47.850;9.002;2022-11-27T03:37:08;96975.25;;;-0.61
67966;BMP280;54749;47.850;9.002;2022-11-27T03:39:36;96964.56;;;-0.66
67966;BMP280;54749;47.850;9.002;2022-11-27T03:45:58;96976.19;;;-0.68
67966;BMP280;54749;47.850;9.002;2022-11-27T03:51:20;96970.53;;;-0.75
67966;BMP280;54749;47.850;9.002;2022-11-27T03:56:59;96973.88;;;-0.78
67966;BMP280;54749;47.850;9.002;2022-11-27T03:59:29;96983.88;;;-0.82
67966;BMP280;54749;47.850;9.002;2022-11-27T04:01:57;96984.72;;;-0.83
67966;BMP280;54749;47.850;9.002;2022-11-27T04:04:24;96977.28;;;-0.83
67966;BMP280;54749;47.850;9.002;2022-11-27T04:06:51;96974.91;;;-0.89
67966;BMP280;54749;47.850;9.002;2022-11-27T04:09:18;96973.31;;;-0.93
67966;BMP280;54749;47.850;9.002;2022-11-27T04:11:45;96959.25;;;-0.92
67966;BMP280;54749;47.850;9.002;2022-11-27T04:14:12;96948.50;;;-0.93
67966;BMP280;54749;47.850;9.002;2022-11-27T04:16:39;96962.59;;;-0.95
67966;BMP280;54749;47.850;9.002;2022-11-27T04:19:06;96966.78;;;-0.97
67966;BMP280;54749;47.850;9.002;2022-11-27T04:21:33;96956.03;;;-0.99
67966;BMP280;54749;47.850;9.002;2022-11-27T04:24:00;96959.38;;;-1.00
67966;BMP280;54749;47.850;9.002;2022-11-27T04:26:27;96960.22;;;-1.01
67966;BMP280;54749;47.850;9.002;2022-11-27T04:28:54;96970.16;;;-1.01
67966;BMP280;54749;47.850;9.002;2022-11-27T04:31:21;96963.59;;;-1.05
67966;BMP280;54749;47.850;9.002;2022-11-27T04:33:47;96948.72;;;-1.05
67966;BMP280;54749;47.850;9.002;2022-11-27T04:36:14;96946.25;;;-1.06
67966;BMP280;54749;47.850;9.002;2022-11-27T04:38:41;96943.75;;;-1.05
67966;BMP280;54749;47.850;9.002;2022-11-27T04:41:08;96936.31;;;-1.05
67966;BMP280;54749;47.850;9.002;2022-11-27T04:43:35;96936.31;;;-1.05
67966;BMP280;54749;47.850;9.002;2022-11-27T04:46:01;96930.63;;;-1.09
67966;BMP280;54749;47.850;9.002;2022-11-27T04:48:28;96925.72;;;-1.14
67966;BMP280;54749;47.850;9.002;2022-11-27T04:50:55;96938.16;;;-1.17
67966;BMP280;54749;47.850;9.002;2022-11-27T04:53:22;96944.06;;;-1.22
67966;BMP280;54749;47.850;9.002;2022-11-27T04:55:52;96942.41;;;-1.22
67966;BMP280;54749;47.850;9.002;2022-11-27T04:58:19;96937.38;;;-1.17
67966;BMP280;54749;47.850;9.002;2022-11-27T05:00:46;96935.81;;;-1.24
67966;BMP280;54749;47.850;9.002;2022-11-27T05:03:13;96945.72;;;-1.24
67966;BMP280;54749;47.850;9.002;2022-11-27T05:05:40;96923.47;;;-1.28
67966;BMP280;54749;47.850;9.002;2022-11-27T05:08:07;96937.53;;;-1.29
67966;BMP280;54749;47.850;9.002;2022-11-27T05:10:34;96943.25;;;-1.25
67966;BMP280;54749;47.850;9.002;2022-11-27T05:13:00;96940.06;;;-1.30
67966;BMP280;54749;47.850;9.002;2022-11-27T05:15:27;96937.59;;;-1.32
67966;BMP280;54749;47.850;9.002;2022-11-27T05:17:54;96922.72;;;-1.32
67966;BMP280;54749;47.850;9.002;2022-11-27T05:20:21;96937.66;;;-1.35
67966;BMP280;54749;47.850;9.002;2022-11-27T05:22:47;96940.13;;;-1.35
67966;BMP280;54749;47.850;9.002;2022-11-27T05:25:15;96950.03;;;-1.36
67966;BMP280;54749;47.850;9.002;2022-11-27T05:27:42;96948.38;;;-1.36
67966;BMP280;54749;47.850;9.002;2022-11-27T05:30:09;96944.22;;;-1.34
67966;BMP280;54749;47.850;9.002;2022-11-27T05:32:36;96935.09;;;-1.30
67966;BMP280;54749;47.850;9.002;2022-11-27T05:35:03;96939.25;;;-1.34
67966;BMP280;54749;47.850;9.002;2022-11-27T05:37:30;96954.25;;;-1.41
67966;BMP280;54749;47.850;9.002;2022-11-27T05:39:58;96953.56;;;-1.49
67966;BMP280;54749;47.850;9.002;2022-11-27T05:42:25;96944.53;;;-1.54
67966;BMP280;54749;47.850;9.002;2022-11-27T05:44:52;96961.13;;;-1.58
67966;BMP280;54749;47.850;9.002;2022-11-27T05:47:24;96968.56;;;-1.59
67966;BMP280;54749;47.850;9.002;2022-11-27T05:49:51;96959.47;;;-1.57
67966;BMP280;54749;47.850;9.002;2022-11-27T05:52:17;96947.84;;;-1.54
67966;BMP280;54749;47.850;9.002;2022-11-27T05:54:44;96955.91;;;-1.41
67966;BMP280;54749;47.850;9.002;2022-11-27T05:57:11;96930.97;;;-1.31
67966;BMP280;54749;47.850;9.002;2022-11-27T05:59:38;96944.00;;;-1.19
67966;BMP280;54749;47.850;9.002;2022-11-27T06:02:05;96933.03;;;-1.08
67966;BMP280;54749;47.850;9.002;2022-11-27T06:04:32;96931.25;;;-0.99
67966;BMP280;54749;47.850;9.002;2022-11-27T06:07:00;96926.13;;;-0.90
67966;BMP280;54749;47.850;9.002;2022-11-27T06:09:27;96916.09;;;-0.84
67966;BMP280;54749;47.850;9.002;2022-11-27T06:11:53;96927.59;;;-0.79
67966;BMP280;54749;47.850;9.002;2022-11-27T06:14:20;96911.75;;;-0.73
67966;BMP280;54749;47.850;9.002;2022-11-27T06:16:47;96919.94;;;-0.69
67966;BMP280;54749;47.850;9.002;2022-11-27T06:19:14;96912.47;;;-0.67
67966;BMP280;54749;47.850;9.002;2022-11-27T06:21:41;96920.81;;;-0.70
67966;BMP280;54749;47.850;9.002;2022-11-27T06:24:09;96931.56;;;-0.70
67966;BMP280;54749;47.850;9.002;2022-11-27T06:26:36;96933.16;;;-0.68
67966;BMP280;54749;47.850;9.002;2022-11-27T06:29:03;96930.66;;;-0.65
67966;BMP280;54749;47.850;9.002;2022-11-27T06:31:31;96918.94;;;-0.60
67966;BMP280;54749;47.850;9.002;2022-11-27T06:33:59;96933.75;;;-0.54
67966;BMP280;54749;47.850;9.002;2022-11-27T06:36:32;96933.69;;;-0.52
67966;BMP280;54749;47.850;9.002;2022-11-27T06:39:01;96927.78;;;-0.46
67966;BMP280;54749;47.850;9.002;2022-11-27T06:41:28;96929.38;;;-0.42
67966;BMP280;54749;47.850;9.002;2022-11-27T06:43:57;96931.81;;;-0.39
67966;BMP280;54749;47.850;9.002;2022-11-27T06:46:25;96932.59;;;-0.37
67966;BMP280;54749;47.850;9.002;2022-11-27T06:48:53;96930.84;;;-0.33
67966;BMP280;54749;47.850;9.002;2022-11-27T06:51:22;96934.06;;;-0.28
67966;BMP280;54749;47.850;9.002;2022-11-27T06:53:50;96938.94;;;-0.25
67966;BMP280;54749;47.850;9.002;2022-11-27T06:56:20;96924.78;;;-0.20
67966;BMP280;54749;47.850;9.002;2022-11-27T06:58:50;96912.34;;;-0.18
67966;BMP280;54749;47.850;9.002;2022-11-27T07:01:18;96913.06;;;-0.14
67966;BMP280;54749;47.850;9.002;2022-11-27T07:03:45;96923.84;;;-0.13
67966;BMP280;54749;47.850;9.002;2022-11-27T07:06:13;96927.91;;;-0.11
67966;BMP280;54749;47.850;9.002;2022-11-27T07:08:41;96909.69;;;-0.10
67966;BMP280;54749;47.850;9.002;2022-11-27T07:11:12;96907.16;;;-0.08
67966;BMP280;54749;47.850;9.002;2022-11-27T07:13:40;96903.78;;;-0.04
67966;BMP280;54749;47.850;9.002;2022-11-27T07:16:08;96892.13;;;-0.02
67966;BMP280;54749;47.850;9.002;2022-11-27T07:18:39;96883.91;;;-0.04
67966;BMP280;54749;47.850;9.002;2022-11-27T07:21:06;96891.19;;;0.03
67966;BMP280;54749;47.850;9.002;2022-11-27T07:23:34;96901.06;;;0.06
67966;BMP280;54749;47.850;9.002;2022-11-27T07:26:05;96891.09;;;0.07
67966;BMP280;54749;47.850;9.002;2022-11-27T07:28:33;96887.78;;;0.07
67966;BMP280;54749;47.850;9.002;2022-11-27T07:31:00;96890.91;;;0.15
67966;BMP280;54749;47.850;9.002;2022-11-27T07:33:27;96894.03;;;0.24
67966;BMP280;54749;47.850;9.002;2022-11-27T07:35:59;96875.28;;;0.47
67966;BMP280;54749;47.850;9.002;2022-11-27T07:38:29;96879.28;;;0.86
67966;BMP280;54749;47.850;9.002;2022-11-27T07:41:02;96879.13;;;1.23
67966;BMP280;54749;47.850;9.002;2022-11-27T07:43:41;96889.19;;;1.50
67966;BMP280;54749;47.850;9.002;2022-11-27T07:46:20;96895.84;;;1.18
67966;BMP280;54749;47.850;9.002;2022-11-27T07:48:48;96889.28;;;0.83
67966;BMP280;54749;47.850;9.002;2022-11-27T07:51:17;96897.13;;;0.69
67966;BMP280;54749;47.850;9.002;2022-11-27T07:53:44;96884.81;;;0.64
67966;BMP280;54749;47.850;9.002;2022-11-27T07:56:13;96888.78;;;0.69
67966;BMP280;54749;47.850;9.002;2022-11-27T07:58:41;96885.34;;;0.75
67966;BMP280;54749;47.850;9.002;2022-11-27T08:01:09;96882.75;;;0.79
67966;BMP280;54749;47.850;9.002;2022-11-27T08:03:37;96894.03;;;0.92
67966;BMP280;54749;47.850;9.002;2022-11-27T08:06:04;96876.41;;;1.01
67966;BMP280;54749;47.850;9.002;2022-11-27T08:08:39;96880.31;;;1.10
67966;BMP280;54749;47.850;9.002;2022-11-27T08:11:05;96882.66;;;1.16
67966;BMP280;54749;47.850;9.002;2022-11-27T08:13:32;96873.09;;;1.31
67966;BMP280;54749;47.850;9.002;2022-11-27T08:15:59;96863.56;;;1.46
67966;BMP280;54749;47.850;9.002;2022-11-27T08:18:26;96864.69;;;1.93
67966;BMP280;54749;47.850;9.002;2022-11-27T08:20:52;96857.22;;;1.93
67966;BMP280;54749;47.850;9.002;2022-11-27T08:23:19;96853.94;;;1.91
67966;BMP280;54749;47.850;9.002;2022-11-27T08:25:46;96843.97;;;1.91
67966;BMP280;54749;47.850;9.002;2022-11-27T08:28:13;96854.69;;;1.94
67966;BMP280;54749;47.850;9.002;2022-11-27T08:30:40;96865.41;;;1.96
67966;BMP280;54749;47.850;9.002;2022-11-27T08:33:07;96864.53;;;1.99
67966;BMP280;54749;47.850;9.002;2022-11-27T08:35:35;96867.91;;;1.96
67966;BMP280;54749;47.850;9.002;2022-11-27T08:38:02;96889.34;;;2.03
67966;BMP280;54749;47.850;9.002;2022-11-27T08:40:29;96899.06;;;1.82
67966;BMP280;54749;47.850;9.002;2022-11-27T08:42:57;96890.97;;;1.74
67966;BMP280;54749;47.850;9.002;2022-11-27T08:45:24;96896.69;;;1.78
67966;BMP280;54749;47.850;9.002;2022-11-27T08:47:50;96894.78;;;1.87
67966;BMP280;54749;47.850;9.002;2022-11-27T08:50:17;96888.50;;;2.03
67966;BMP280;54749;47.850;9.002;2022-11-27T08:52:44;96875.66;;;2.16
67966;BMP280;54749;47.850;9.002;2022-11-27T08:55:11;96861.25;;;2.25
67966;BMP280;54749;47.850;9.002;2022-11-27T08:57:38;96857.78;;;2.29
67966;BMP280;54749;47.850;9.002;2022-11-27T09:00:05;96841.94;;;2.30
67966;BMP280;54749;47.850;9.002;2022-11-27T09:02:33;96843.41;;;2.37
67966;BMP280;54749;47.850;9.002;2022-11-27T09:05:00;96858.84;;;2.47
67966;BMP280;54749;47.850;9.002;2022-11-27T09:07:28;96851.22;;;2.52
67966;BMP280;54749;47.850;9.002;2022-11-27T09:09:55;96859.38;;;2.57
67966;BMP280;54749;47.850;9.002;2022-11-27T09:12:22;96878.16;;;2.68
67966;BMP280;54749;47.850;9.002;2022-11-27T09:14:48;96864.44;;;2.80
67966;BMP280;54749;47.850;9.002;2022-11-27T09:17:15;96858.94;;;2.95
67966;BMP280;54749;47.850;9.002;2022-11-27T09:19:42;96862.75;;;3.06
67966;BMP280;54749;47.850;9.002;2022-11-27T09:22:09;96863.81;;;3.23
67966;BMP280;54749;47.850;9.002;2022-11-27T09:24:36;96838.53;;;3.32
67966;BMP280;54749;47.850;9.002;2022-11-27T09:27:03;96845.59;;;3.44
67966;BMP280;54749;47.850;9.002;2022-11-27T09:29:29;96842.50;;;3.60
67966;BMP280;54749;47.850;9.002;2022-11-27T09:31:56;96847.25;;;3.67
67966;BMP280;54749;47.850;9.002;2022-11-27T09:34:23;96839.63;;;3.70
67966;BMP280;54749;47.850;9.002;2022-11-27T09:36:50;96838.00;;;3.69
67966;BMP280;54749;47.850;9.002;2022-11-27T09:39:17;96837.34;;;3.64
67966;BMP280;54749;47.850;9.002;2022-11-27T09:41:50;96834.78;;;3.43
67966;BMP280;54749;47.850;9.002;2022-11-27T09:44:28;96843.75;;;3.25
67966;BMP280;54749;47.850;9.002;2022-11-27T09:47:08;96848.59;;;3.29
67966;BMP280;54749;47.850;9.002;2022-11-27T09:49:42;96845.31;;;3.29
67966;BMP280;54749;47.850;9.002;2022-11-27T09:52:21;96851.22;;;3.26
67966;BMP280;54749;47.850;9.002;2022-11-27T09:54:55;96834.03;;;3.41
67966;BMP280;54749;47.850;9.002;2022-11-27T09:57:28;96829.16;;;3.61
67966;BMP280;54749;47.850;9.002;2022-11-27T10:00:01;96816.16;;;3.74
67966;BMP280;54749;47.850;9.002;2022-11-27T10:02:31;96807.78;;;3.75
67966;BMP280;54749;47.850;9.002;2022-11-27T10:05:02;96800.47;;;3.70
67966;BMP280;54749;47.850;9.002;2022-11-27T10:10:43;96793.13;;;4.09
67966;BMP280;54749;47.850;9.002;2022-11-27T10:15:53;96793.75;;;4.35
67966;BMP280;54749;47.850;9.002;2022-11-27T10:18:43;96769.44;;;4.38
67966;BMP280;54749;47.850;9.002;2022-11-27T10:21:19;96776.75;;;4.43
67966;BMP280;54749;47.850;9.002;2022-11-27T10:24:09;96776.22;;;4.56
67966;BMP280;54749;47.850;9.002;2022-11-27T10:26:46;96789.44;;;4.79
67966;BMP280;54749;47.850;9.002;2022-11-27T10:32:09;96775.34;;;4.57
67966;BMP280;54749;47.850;9.002;2022-11-27T10:35:02;96784.09;;;4.47
67966;BMP280;54749;47.850;9.002;2022-11-27T10:37:40;96764.88;;;4.48
67966;BMP280;54749;47.850;9.002;2022-11-27T10:42:41;96779.94;;;4.67
67966;BMP280;54749;47.850;9.002;2022-11-27T10:45:18;96772.47;;;4.85
67966;BMP280;54749;47.850;9.002;2022-11-27T10:47:47;96755.38;;;5.14
67966;BMP280;54749;47.850;9.002;2022-11-27T10:50:18;96737.00;;;5.51
67966;BMP280;54749;47.850;9.002;2022-11-27T10:52:52;96730.66;;;5.80
67966;BMP280;54749;47.850;9.002;2022-11-27T10:58:31;96723.78;;;6.01
67966;BMP280;54749;47.850;9.002;2022-11-27T11:03:27;96713.81;;;6.00
67966;BMP280;54749;47.850;9.002;2022-11-27T11:05:58;96719.50;;;6.03
67966;BMP280;54749;47.850;9.002;2022-11-27T11:08:46;96714.28;;;6.08
67966;BMP280;54749;47.850;9.002;2022-11-27T11:11:24;96712.97;;;6.17
67966;BMP280;54749;47.850;9.002;2022-11-27T11:13:51;96726.31;;;6.18
67966;BMP280;54749;47.850;9.002;2022-11-27T11:16:24;96719.44;;;6.05
67966;BMP280;54749;47.850;9.002;2022-11-27T11:19:00;96709.31;;;6.06
67966;BMP280;54749;47.850;9.002;2022-11-27T11:21:38;96704.19;;;5.91
67966;BMP280;54749;47.850;9.002;2022-11-27T11:24:28;96719.06;;;5.77
67966;BMP280;54749;47.850;9.002;2022-11-27T11:27:00;96707.91;;;5.66
67966;BMP280;54749;47.850;9.002;2022-11-27T11:29:41;96697.66;;;5.71
67966;BMP280;54749;47.850;9.002;2022-11-27T11:32:15;96686.09;;;5.85
67966;BMP280;54749;47.850;9.002;2022-11-27T11:34:49;96675.63;;;5.94
67966;BMP280;54749;47.850;9.002;2022-11-27T11:37:27;96670.88;;;6.06
67966;BMP280;54749;47.850;9.002;2022-11-27T11:43:36;96665.50;;;6.29
67966;BMP280;54749;47.850;9.002;2022-11-27T11:45:45;96675.41;;;6.49
67966;BMP280;54749;47.850;9.002;2022-11-27T11:48:26;96684.03;;;6.60
67966;BMP280;54749;47.850;9.002;2022-11-27T11:51:10;96673.47;;;6.54
67966;BMP280;54749;47.850;9.002;2022-11-27T11:53:40;96660.63;;;6.43
67966;BMP280;54749;47.850;9.002;2022-11-27T11:56:30;96665.94;;;6.37
67966;BMP280;54749;47.850;9.002;2022-11-27T12:10:27;96635.28;;;7.57
67966;BMP280;54749;47.850;9.002;2022-11-27T12:18:24;96612.88;;;7.23
67966;BMP280;54749;47.850;9.002;2022-11-27T12:26:38;96617.94;;;7.06
67966;BMP280;54749;47.850;9.002;2022-11-27T12:32:26;96631.78;;;6.83
67966;BMP280;54749;47.850;9.002;2022-11-27T12:40:38;96624.09;;;6.86
67966;BMP280;54749;47.850;9.002;2022-11-27T12:43:23;96597.44;;;6.99
67966;BMP280;54749;47.850;9.002;2022-11-27T12:48:32;96598.75;;;7.05
67966;BMP280;54749;47.850;9.002;2022-11-27T12:51:05;96593.41;;;7.11
67966;BMP280;54749;47.850;9.002;2022-11-27T12:53:44;96601.59;;;7.15
67966;BMP280;54749;47.850;9.002;2022-11-27T12:59:20;96592.09;;;7.04
67966;BMP280;54749;47.850;9.002;2022-11-27T13:04:33;96587.41;;;7.14
67966;BMP280;54749;47.850;9.002;2022-11-27T13:07:08;96575.56;;;7.00
67966;BMP280;54749;47.850;9.002;2022-11-27T13:09:49;96586.34;;;7.02
67966;BMP280;54749;47.850;9.002;2022-11-27T13:12:30;96566.00;;;7.07
67966;BMP280;54749;47.850;9.002;2022-11-27T13:15:06;96558.69;;;7.02
67966;BMP280;54749;47.850;9.002;2022-11-27T13:17:40;96560.06;;;6.93
67966;BMP280;54749;47.850;9.002;2022-11-27T13:20:17;96583.34;;;6.64
67966;BMP280;54749;47.850;9.002;2022-11-27T13:22:46;96578.84;;;6.39
67966;BMP280;54749;47.850;9.002;2022-11-27T13:25:14;96572.94;;;6.07
67966;BMP280;54749;47.850;9.002;2022-11-27T13:27:44;96580.69;;;6.03
67966;BMP280;54749;47.850;9.002;2022-11-27T13:30:24;96559.81;;;6.02
67966;BMP280;54749;47.850;9.002;2022-11-27T13:32:54;96536.34;;;6.03
67966;BMP280;54749;47.850;9.002;2022-11-27T13:38:17;96536.84;;;6.26
67966;BMP280;54749;47.850;9.002;2022-11-27T13:40:49;96507.72;;;6.39
67966;BMP280;54749;47.850;9.002;2022-11-27T13:43:27;96512.06;;;6.52
67966;BMP280;54749;47.850;9.002;2022-11-27T13:46:06;96503.28;;;6.44
67966;BMP280;54749;47.850;9.002;2022-11-27T13:48:35;96500.44;;;6.34
67966;BMP280;54749;47.850;9.002;2022-11-27T13:51:05;96526.44;;;6.17
67966;BMP280;54749;47.850;9.002;2022-11-27T13:53:36;96517.88;;;6.21
67966;BMP280;54749;47.850;9.002;2022-11-27T13:56:06;96499.28;;;6.25
67966;BMP280;54749;47.850;9.002;2022-11-27T13:58:38;96509.00;;;6.30
67966;BMP280;54749;47.850;9.002;2022-11-27T14:01:15;96515.22;;;6.24
67966;BMP280;54749;47.850;9.002;2022-11-27T14:03:42;96527.66;;;6.10
67966;BMP280;54749;47.850;9.002;2022-11-27T14:06:26;96506.91;;;6.07
67966;BMP280;54749;47.850;9.002;2022-11-27T14:09:03;96490.56;;;6.15
67966;BMP280;54749;47.850;9.002;2022-11-27T14:11:37;96498.03;;;6.16
67966;BMP280;54749;47.850;9.002;2022-11-27T14:14:21;96488.16;;;6.13
67966;BMP280;54749;47.850;9.002;2022-11-27T14:16:58;96490.81;;;6.11
67966;BMP280;54749;47.850;9.002;2022-11-27T14:22:01;96493.34;;;5.94
67966;BMP280;54749;47.850;9.002;2022-11-27T14:24:40;96500.66;;;5.82
67966;BMP280;54749;47.850;9.002;2022-11-27T14:27:25;96499.41;;;5.74
67966;BMP280;54749;47.850;9.002;2022-11-27T14:29:52;96512.31;;;5.66
67966;BMP280;54749;47.850;9.002;2022-11-27T14:32:19;96504.06;;;5.64
67966;BMP280;54749;47.850;9.002;2022-11-27T14:34:47;96495.72;;;5.64
67966;BMP280;54749;47.850;9.002;2022-11-27T14:37:25;96504.19;;;5.61
67966;BMP280;54749;47.850;9.002;2022-11-27T14:39:52;96484.34;;;5.57
67966;BMP280;54749;47.850;9.002;2022-11-27T14:42:25;96497.53;;;5.60
67966;BMP280;54749;47.850;9.002;2022-11-27T14:45:07;96484.00;;;5.64
67966;BMP280;54749;47.850;9.002;2022-11-27T14:47:44;96480.44;;;5.68
67966;BMP280;54749;47.850;9.002;2022-11-27T14:50:13;96485.47;;;5.68
67966;BMP280;54749;47.850;9.002;2022-11-27T14:52:41;96473.97;;;5.64
67966;BMP280;54749;47.850;9.002;2022-11-27T14:55:15;96468.19;;;5.62
67966;BMP280;54749;47.850;9.002;2022-11-27T14:57:44;96464.19;;;5.58
67966;BMP280;54749;47.850;9.002;2022-11-27T15:02:46;96462.72;;;5.55
67966;BMP280;54749;47.850;9.002;2022-11-27T15:05:22;96454.53;;;5.51
67966;BMP280;54749;47.850;9.002;2022-11-27T15:07:53;96450.56;;;5.47
67966;BMP280;54749;47.850;9.002;2022-11-27T15:12:53;96458.31;;;5.43
67966;BMP280;54749;47.850;9.002;2022-11-27T15:15:24;96452.69;;;5.38
67966;BMP280;54749;47.850;9.002;2022-11-27T15:17:59;96470.56;;;5.32
67966;BMP280;54749;47.850;9.002;2022-11-27T15:20:42;96464.03;;;5.28
67966;BMP280;54749;47.850;9.002;2022-11-27T15:23:16;96454.16;;;5.25
67966;BMP280;54749;47.850;9.002;2022-11-27T15:25:46;96453.66;;;5.19
67966;BMP280;54749;47.850;9.002;2022-11-27T15:36:48;96440.41;;;4.83
67966;BMP280;54749;47.850;9.002;2022-11-27T15:39:31;96437.91;;;4.83
67966;BMP280;54749;47.850;9.002;2022-11-27T15:42:02;96427.88;;;4.83
67966;BMP280;54749;47.850;9.002;2022-11-27T15:44:31;96431.56;;;4.76
67966;BMP280;54749;47.850;9.002;2022-11-27T15:46:59;96417.84;;;4.66
67966;BMP280;54749;47.850;9.002;2022-11-27T15:49:27;96429.81;;;4.60
67966;BMP280;54749;47.850;9.002;2022-11-27T15:51:55;96426.63;;;4.56
67966;BMP280;54749;47.850;9.002;2022-11-27T15:54:23;96414.13;;;4.56
67966;BMP280;54749;47.850;9.002;2022-11-27T15:56:50;96410.75;;;4.57
67966;BMP280;54749;47.850;9.002;2022-11-27T15:59:17;96411.81;;;4.52
67966;BMP280;54749;47.850;9.002;2022-11-27T16:01:47;96399.38;;;4.51
67966;BMP280;54749;47.850;9.002;2022-11-27T16:04:16;96394.13;;;4.38
67966;BMP280;54749;47.850;9.002;2022-11-27T16:06:43;96380.34;;;4.30
67966;BMP280;54749;47.850;9.002;2022-11-27T16:09:10;96397.38;;;4.22
67966;BMP280;54749;47.850;9.002;2022-11-27T16:11:37;96397.63;;;4.17
67966;BMP280;54749;47.850;9.002;2022-11-27T16:14:04;96400.44;;;4.11
67966;BMP280;54749;47.850;9.002;2022-11-27T16:16:31;96384.66;;;4.09
67966;BMP280;54749;47.850;9.002;2022-11-27T16:18:59;96398.19;;;4.05
67966;BMP280;54749;47.850;9.002;2022-11-27T16:21:28;96400.06;;;4.00
67966;BMP280;54749;47.850;9.002;2022-11-27T16:24:01;96404.19;;;4.01
67966;BMP280;54749;47.850;9.002;2022-11-27T16:26:28;96395.94;;;3.99